createdAt,value
2022-11-06T00:04:37.424Z,3.29
2022-11-06T00:09:39.144Z,3.16
2022-11-06T00:14:40.794Z,3.00
2022-11-06T00:19:42.438Z,3.13
2022-11-06T00:24:44.087Z,3.39
2022-11-06T00:29:45.940Z,3.36
2022-11-06T00:34:48.381Z,3.37
2022-11-06T00:39:50.030Z,3.22
2022-11-06T00:44:51.688Z,3.11
2022-11-06T00:49:53.374Z,3.14
2022-11-06T00:54:55.021Z,3.16
2022-11-06T00:59:56.691Z,3.03
2022-11-06T01:04:58.361Z,3.19
2022-11-06T01:10:00.012Z,3.08
2022-11-06T01:15:01.943Z,2.92
2022-11-06T01:20:05.079Z,2.90
2022-11-06T01:25:07.542Z,2.79
2022-11-06T01:30:09.727Z,3.04
2022-11-06T01:35:11.386Z,2.98
2022-11-06T01:40:13.073Z,2.78
2022-11-06T01:45:24.688Z,2.86
2022-11-06T01:50:27.078Z,2.93
2022-11-06T01:55:34.705Z,2.96
2022-11-06T02:00:36.495Z,2.92
2022-11-06T02:05:39.000Z,2.84
2022-11-06T02:10:41.979Z,2.84
2022-11-06T02:15:52.113Z,2.89
2022-11-06T02:21:05.434Z,2.82
2022-11-06T02:26:24.410Z,2.83
2022-11-06T02:31:32.070Z,2.74
2022-11-06T02:36:38.165Z,2.71
2022-11-06T02:41:44.790Z,2.74
2022-11-06T02:47:01.054Z,2.72
2022-11-06T02:52:13.995Z,2.74
2022-11-06T02:57:19.980Z,2.81
2022-11-06T03:02:28.109Z,2.83
2022-11-06T03:07:47.320Z,2.81
2022-11-06T03:12:57.058Z,2.77
2022-11-06T03:18:33.421Z,2.72
2022-11-06T03:24:02.076Z,2.78
2022-11-06T03:29:12.663Z,2.59
2022-11-06T03:34:27.941Z,2.53
2022-11-06T03:39:37.789Z,2.41
2022-11-06T03:44:45.763Z,2.62
2022-11-06T03:49:52.532Z,2.62
2022-11-06T03:55:00.815Z,2.47
2022-11-06T04:00:08.050Z,2.48
2022-11-06T04:05:17.793Z,2.55
2022-11-06T04:10:38.416Z,2.47
2022-11-06T04:15:51.982Z,2.37
2022-11-06T04:21:22.576Z,2.31
2022-11-06T04:26:39.257Z,2.33
2022-11-06T04:31:58.803Z,2.37
2022-11-06T04:37:09.403Z,2.15
2022-11-06T04:42:27.764Z,2.22
2022-11-06T04:47:29.982Z,2.22
2022-11-06T04:52:32.862Z,2.32
2022-11-06T04:57:34.550Z,2.24
2022-11-06T05:02:36.217Z,2.33
2022-11-06T05:07:37.875Z,2.13
2022-11-06T05:12:39.593Z,2.17
2022-11-06T05:17:41.336Z,2.36
2022-11-06T05:22:58.181Z,2.33
2022-11-06T05:28:00.964Z,2.18
2022-11-06T05:33:03.023Z,2.11
2022-11-06T05:38:04.724Z,1.98
2022-11-06T05:43:06.399Z,1.97
2022-11-06T05:48:08.073Z,2.02
2022-11-06T05:53:09.751Z,1.91
2022-11-06T05:58:11.771Z,1.83
2022-11-06T06:03:13.734Z,1.93
2022-11-06T06:08:16.095Z,1.86
2022-11-06T06:13:17.863Z,1.91
2022-11-06T06:18:19.515Z,1.92
2022-11-06T06:23:21.173Z,2.03
2022-11-06T06:28:22.869Z,1.90
2022-11-06T06:33:24.519Z,1.85
2022-11-06T06:38:26.452Z,1.79
2022-11-06T06:43:28.232Z,1.74
2022-11-06T06:48:30.597Z,1.84
2022-11-06T06:53:32.352Z,1.84
2022-11-06T06:58:34.288Z,1.80
2022-11-06T07:03:37.259Z,1.92
2022-11-06T07:08:39.010Z,1.95
2022-11-06T07:13:40.751Z,2.08
2022-11-06T07:18:42.488Z,2.02
2022-11-06T07:23:44.360Z,2.16
2022-11-06T07:28:46.045Z,2.36
2022-11-06T07:33:47.683Z,2.77
2022-11-06T07:38:49.369Z,2.74
2022-11-06T07:43:51.053Z,3.32
2022-11-06T07:48:52.716Z,4.26
2022-11-06T07:53:54.374Z,4.64
2022-11-06T07:58:56.040Z,6.56
2022-11-06T08:03:57.823Z,6.68
2022-11-06T08:08:59.493Z,7.17
2022-11-06T08:14:01.468Z,6.84
2022-11-06T08:19:04.358Z,5.87
2022-11-06T08:24:06.874Z,6.18
2022-11-06T08:29:09.317Z,5.49
2022-11-06T08:34:11.057Z,5.54
2022-11-06T08:39:13.757Z,6.04
2022-11-06T08:44:15.454Z,6.42
2022-11-06T08:49:17.153Z,6.83
2022-11-06T08:54:18.872Z,7.15
2022-11-06T08:59:20.559Z,8.00
2022-11-06T09:04:22.203Z,9.89
2022-11-06T09:09:31.903Z,11.94
2022-11-06T09:14:34.998Z,10.23
2022-11-06T09:19:37.140Z,12.30
2022-11-06T09:25:01.897Z,11.04
2022-11-06T09:30:01.199Z,12.71
2022-11-06T09:35:03.110Z,13.88
2022-11-06T09:40:09.118Z,12.45
2022-11-06T09:45:22.652Z,11.98
2022-11-06T09:50:29.455Z,12.89
2022-11-06T09:55:36.159Z,12.25
2022-11-06T10:00:40.772Z,12.60
2022-11-06T10:05:43.237Z,13.08
2022-11-06T10:11:05.934Z,13.88
2022-11-06T10:16:19.542Z,15.64
2022-11-06T10:21:32.457Z,13.23
2022-11-06T10:26:41.143Z,13.80
2022-11-06T10:31:56.191Z,14.18
2022-11-06T10:37:05.899Z,15.32
2022-11-06T10:42:38.538Z,17.82
2022-11-06T10:47:54.322Z,17.58
2022-11-06T10:53:29.160Z,17.68
2022-11-06T10:58:33.351Z,16.57
2022-11-06T11:03:39.897Z,20.97
2022-11-06T11:08:51.837Z,17.79
2022-11-06T11:13:56.260Z,19.56
2022-11-06T11:19:26.853Z,18.78
2022-11-06T11:24:29.256Z,19.79
2022-11-06T11:29:34.315Z,19.71
2022-11-06T11:34:49.182Z,17.71
2022-11-06T11:39:53.226Z,20.38
2022-11-06T11:45:14.256Z,17.84
2022-11-06T11:50:33.761Z,17.33
2022-11-06T11:55:40.165Z,16.53
2022-11-06T12:00:51.802Z,17.85
2022-11-06T12:05:54.792Z,16.81
2022-11-06T12:11:03.667Z,17.90
2022-11-06T12:16:14.999Z,15.56
2022-11-06T12:21:25.937Z,14.93
2022-11-06T12:26:36.951Z,17.01
2022-11-06T12:32:00.148Z,15.83
2022-11-06T12:37:19.055Z,15.13
2022-11-06T12:42:25.704Z,15.09
2022-11-06T12:47:30.263Z,14.97
2022-11-06T12:53:08.242Z,14.75
2022-11-06T12:58:53.105Z,14.73
2022-11-06T13:04:32.170Z,15.78
2022-11-06T13:09:59.181Z,14.69
2022-11-06T13:15:12.287Z,14.26
2022-11-06T13:20:29.554Z,15.00
2022-11-06T13:25:40.038Z,14.23
2022-11-06T13:30:43.420Z,14.00
2022-11-06T13:35:46.588Z,13.74
2022-11-06T13:40:55.415Z,13.82
2022-11-06T13:46:01.913Z,13.68
2022-11-06T13:51:10.745Z,14.25
2022-11-06T13:56:24.223Z,13.92
2022-11-06T14:01:43.246Z,12.82
2022-11-06T14:06:46.177Z,13.10
2022-11-06T14:11:55.094Z,12.24
2022-11-06T14:17:16.839Z,14.05
2022-11-06T14:22:38.315Z,12.35
2022-11-06T14:27:39.933Z,12.59
2022-11-06T14:32:44.712Z,12.69
2022-11-06T14:37:47.226Z,12.51
2022-11-06T14:42:48.990Z,12.24
2022-11-06T14:47:57.200Z,11.53
2022-11-06T14:53:06.205Z,11.09
2022-11-06T14:58:23.043Z,10.42
2022-11-06T15:03:26.961Z,9.60
2022-11-06T15:08:47.440Z,9.67
2022-11-06T15:13:49.169Z,9.26
2022-11-06T15:18:51.678Z,8.83
2022-11-06T15:24:38.570Z,9.11
2022-11-06T15:29:44.360Z,9.03
2022-11-06T15:34:57.633Z,8.48
2022-11-06T15:40:01.214Z,8.56
2022-11-06T15:45:29.359Z,8.52
2022-11-06T15:50:31.809Z,8.50
2022-11-06T15:55:36.654Z,8.39
2022-11-06T16:00:41.384Z,8.18
2022-11-06T16:05:43.857Z,7.89
2022-11-06T16:10:48.483Z,7.35
2022-11-06T16:16:02.789Z,7.29
2022-11-06T16:21:16.424Z,7.03
2022-11-06T16:26:20.991Z,6.64
2022-11-06T16:31:25.020Z,6.47
2022-11-06T16:36:28.902Z,6.51
2022-11-06T16:41:58.468Z,6.39
2022-11-06T16:47:20.325Z,6.21
2022-11-06T16:52:24.959Z,5.94
2022-11-06T16:57:30.715Z,5.95
2022-11-06T17:02:36.787Z,5.86
2022-11-06T17:07:39.446Z,5.82
2022-11-06T17:12:41.131Z,5.91
2022-11-06T17:17:42.883Z,5.65
2022-11-06T17:22:46.069Z,5.55
2022-11-06T17:27:47.727Z,5.42
2022-11-06T17:32:49.369Z,5.35
2022-11-06T17:37:51.083Z,5.11
2022-11-06T17:42:52.885Z,5.24
2022-11-06T17:47:54.660Z,5.05
2022-11-06T17:52:56.315Z,4.99
2022-11-06T17:57:57.964Z,4.80
2022-11-06T18:03:01.893Z,4.85
2022-11-06T18:08:04.039Z,4.72
2022-11-06T18:13:07.085Z,4.64
2022-11-06T18:18:08.779Z,4.47
2022-11-06T18:23:10.494Z,4.46
2022-11-06T18:28:12.174Z,4.51
2022-11-06T18:33:13.823Z,4.45
2022-11-06T18:38:16.764Z,4.39
2022-11-06T18:43:19.029Z,4.46
2022-11-06T18:48:21.883Z,4.13
2022-11-06T18:53:23.853Z,4.15
2022-11-06T18:58:25.664Z,4.11
2022-11-06T19:03:27.289Z,4.35
2022-11-06T19:08:28.959Z,4.05
2022-11-06T19:13:30.973Z,4.00
2022-11-06T19:18:35.990Z,4.10
2022-11-06T19:23:39.867Z,3.88
2022-11-06T19:28:42.756Z,4.01
2022-11-06T19:33:44.842Z,4.02
2022-11-06T19:38:46.879Z,3.80
2022-11-06T19:43:48.643Z,3.91
2022-11-06T19:48:50.461Z,3.90
2022-11-06T19:53:54.120Z,3.86
2022-11-06T19:58:55.807Z,3.90
2022-11-06T20:03:57.473Z,4.01
2022-11-06T20:08:59.545Z,4.07
2022-11-06T20:14:01.270Z,4.12
2022-11-06T20:19:03.005Z,3.83
2022-11-06T20:24:05.020Z,3.96
2022-11-06T20:29:06.715Z,4.06
2022-11-06T20:34:09.250Z,4.20
2022-11-06T20:39:15.313Z,4.17
2022-11-06T20:44:17.005Z,4.05
2022-11-06T20:49:18.727Z,4.36
2022-11-06T20:54:20.388Z,4.24
2022-11-06T20:59:22.320Z,4.23
2022-11-06T21:04:25.031Z,4.18
2022-11-06T21:09:26.826Z,4.16
2022-11-06T21:14:28.509Z,4.35
2022-11-06T21:19:30.331Z,4.58
2022-11-06T21:24:32.080Z,4.33
2022-11-06T21:29:33.770Z,4.29
2022-11-06T21:34:35.417Z,4.44
2022-11-06T21:39:37.151Z,4.55
2022-11-06T21:44:38.882Z,4.41
2022-11-06T21:49:40.538Z,4.50
2022-11-06T21:55:00.736Z,4.48
2022-11-06T22:00:02.433Z,4.69
2022-11-06T22:05:13.868Z,4.76
2022-11-06T22:10:15.578Z,4.91
2022-11-06T22:15:17.348Z,5.03
2022-11-06T22:20:19.069Z,5.27
2022-11-06T22:25:22.210Z,5.26
2022-11-06T22:30:23.906Z,5.42
2022-11-06T22:35:25.570Z,5.98
2022-11-06T22:40:27.234Z,5.63
2022-11-06T22:45:31.315Z,5.81
2022-11-06T22:50:34.897Z,5.83
2022-11-06T22:55:36.684Z,5.88
2022-11-06T23:00:38.432Z,5.91
2022-11-06T23:05:40.320Z,5.94
2022-11-06T23:10:42.925Z,6.05
2022-11-06T23:15:45.433Z,5.94
2022-11-06T23:20:47.089Z,5.97
2022-11-06T23:25:48.826Z,6.14
2022-11-06T23:30:50.502Z,7.00
2022-11-06T23:35:52.176Z,8.84
2022-11-06T23:40:53.869Z,8.81
2022-11-06T23:45:55.524Z,8.70
2022-11-06T23:50:59.816Z,8.26
2022-11-06T23:56:06.026Z,7.92
